Time;durP1;ratioP1;P1;durP2;ratioP2;P2;SDS_P1;SDS_P2;PMS_P1;PMS_P2;Temp;Humidity;BMP_temperature;BMP_pressure;BME280_temperature;BME280_humidity;BME280_pressure;Samples;Min_cycle;Max_cycle;Signal;HPM_P1;HPM_P2
2022/08/05 00:01:31;;;;;;;6.50;3.40;;;24.90;66.70;;;;;;5117677;28;20512;-83
2022/08/05 00:04:15;;;;;;;7.60;3.90;;;25.20;65.50;;;;;;5098761;28;20848;-82
2022/08/05 00:06:43;;;;;;;7.70;4.20;;;25.10;66.70;;;;;;5097775;28;20516;-85
2022/08/05 00:09:12;;;;;;;5.80;3.70;;;25.00;67.70;;;;;;5097399;28;20484;-82
2022/08/05 00:11:46;;;;;;;5.47;3.70;;;24.80;68.70;;;;;;5096652;28;20563;-82
2022/08/05 00:14:23;;;;;;;11.67;4.20;;;24.50;70.80;;;;;;5096545;28;20453;-81
2022/08/05 00:16:55;;;;;;;7.00;3.80;;;24.80;71.10;;;;;;5098056;28;20426;-82
2022/08/05 00:19:23;;;;;;;5.17;4.10;;;25.10;69.60;;;;;;5116345;28;20499;-82
2022/08/05 00:22:07;;;;;;;7.57;4.70;;;25.00;70.70;;;;;;5117039;28;20516;-82
2022/08/05 00:24:39;;;;;;;7.60;4.60;;;25.40;69.30;;;;;;5118539;28;20483;-84
2022/08/05 00:27:09;;;;;;;7.63;4.77;;;25.50;69.10;;;;;;5117765;28;20436;-81
2022/08/05 00:29:43;;;;;;;6.77;4.23;;;25.20;70.00;;;;;;5117740;28;20440;-83
2022/08/05 00:32:11;;;;;;;6.43;3.90;;;25.20;71.40;;;;;;5116615;28;20421;-82
2022/08/05 00:34:43;;;;;;;8.07;4.90;;;25.10;70.80;;;;;;5117229;28;20522;-83
2022/08/05 00:37:31;;;;;;;8.20;4.87;;;24.80;72.30;;;;;;5119904;28;20399;-82
2022/08/05 00:40:21;;;;;;;9.53;5.10;;;25.20;71.70;;;;;;5121913;28;20414;-81
2022/08/05 00:42:56;;;;;;;7.50;5.07;;;25.20;70.70;;;;;;5120280;28;20406;-83
2022/08/05 00:45:24;;;;;;;8.23;5.50;;;25.40;70.60;;;;;;5119120;28;20479;-82
2022/08/05 00:48:06;;;;;;;6.60;5.13;;;25.50;70.00;;;;;;5119975;28;20422;-83
2022/08/05 00:50:36;;;;;;;8.43;5.00;;;25.10;71.60;;;;;;5110565;28;20475;-81
2022/08/05 00:53:03;;;;;;;8.10;4.97;;;24.20;75.60;;;;;;5112038;28;20511;-82
2022/08/05 00:55:53;;;;;;;6.37;5.10;;;24.50;77.20;;;;;;5118922;28;20477;-83
2022/08/05 00:58:21;;;;;;;11.73;5.50;;;25.00;74.90;;;;;;5121342;28;20439;-82
2022/08/05 01:00:54;;;;;;;6.53;4.83;;;25.20;72.60;;;;;;5120026;28;20406;-82
2022/08/05 01:03:23;;;;;;;9.60;5.00;;;25.30;72.90;;;;;;5113946;28;20554;-82
2022/08/05 01:05:57;;;;;;;7.70;5.30;;;25.00;72.70;;;;;;5118781;28;20463;-81
2022/08/05 01:08:25;;;;;;;6.30;5.10;;;25.00;73.30;;;;;;5118302;28;20461;-81
2022/08/05 01:11:13;;;;;;;7.67;5.60;;;25.20;72.90;;;;;;5112008;28;20453;-82
2022/08/05 01:14:01;;;;;;;6.90;5.30;;;25.20;72.30;;;;;;5118938;28;20434;-80
2022/08/05 01:16:30;;;;;;;7.40;5.57;;;25.00;74.00;;;;;;5118171;28;20478;-81
2022/08/05 01:19:02;;;;;;;10.73;5.53;;;25.10;72.80;;;;;;5118951;28;20541;-82
2022/08/05 01:21:47;;;;;;;9.97;5.93;;;25.20;73.40;;;;;;5117854;28;20413;-81
2022/08/05 01:24:26;;;;;;;8.70;5.70;;;24.80;72.60;;;;;;5116977;28;20454;-81
2022/08/05 01:27:00;;;;;;;12.03;5.63;;;24.70;74.70;;;;;;5116871;28;20406;-82
2022/08/05 01:29:52;;;;;;;5.70;4.83;;;24.80;74.60;;;;;;5117021;28;20428;-82
2022/08/05 01:32:22;;;;;;;11.97;6.20;;;24.50;74.90;;;;;;5116877;28;20446;-82
2022/08/05 01:34:56;;;;;;;13.50;5.40;;;24.50;76.60;;;;;;5116665;28;20430;-82
2022/08/05 01:37:28;;;;;;;12.17;6.63;;;24.70;76.00;;;;;;5117191;28;20430;-82
2022/08/05 01:39:59;;;;;;;9.50;6.10;;;25.00;74.40;;;;;;5116019;28;20456;-81
2022/08/05 01:42:27;;;;;;;7.43;5.37;;;25.00;74.00;;;;;;5116964;28;20411;-82
2022/08/05 01:44:57;;;;;;;8.83;5.53;;;25.00;74.10;;;;;;5116605;28;20430;-83
2022/08/05 01:47:26;;;;;;;11.43;5.60;;;24.70;74.10;;;;;;5116304;28;20522;-83
2022/08/05 01:50:08;;;;;;;10.40;6.27;;;24.50;75.50;;;;;;5118025;28;20435;-81
2022/08/05 01:52:43;;;;;;;8.67;6.50;;;24.30;76.40;;;;;;5116811;28;20520;-83
2022/08/05 01:55:11;;;;;;;7.90;5.57;;;24.10;78.00;;;;;;5115726;28;20532;-82
2022/08/05 01:57:41;;;;;;;10.80;6.27;;;24.20;79.30;;;;;;5111912;28;20538;-83
2022/08/05 02:00:31;;;;;;;11.67;6.40;;;24.40;77.50;;;;;;5117190;28;20432;-82
2022/08/05 02:03:01;;;;;;;10.27;6.80;;;24.00;78.30;;;;;;5117123;28;20468;-83
2022/08/05 02:05:33;;;;;;;11.47;7.30;;;23.40;82.50;;;;;;5117127;28;20492;-83
2022/08/05 02:08:03;;;;;;;12.43;7.50;;;23.60;83.70;;;;;;5116554;28;20921;-82
2022/08/05 02:10:34;;;;;;;11.00;7.10;;;23.30;85.50;;;;;;5115047;28;20514;-82
2022/08/05 02:13:05;;;;;;;10.30;7.60;;;23.40;86.60;;;;;;5110054;28;20423;-83
2022/08/05 02:15:46;;;;;;;13.63;7.83;;;23.80;84.00;;;;;;5115685;28;20445;-84
2022/08/05 02:18:20;;;;;;;11.47;6.50;;;24.00;83.00;;;;;;5110870;28;20443;-82
2022/08/05 02:21:03;;;;;;;8.30;7.40;;;24.20;82.50;;;;;;5115478;28;20406;-82
2022/08/05 02:23:34;;;;;;;10.57;7.63;;;24.30;79.90;;;;;;5115216;28;20439;-83
2022/08/05 02:26:03;;;;;;;12.73;7.33;;;24.50;80.00;;;;;;5114898;28;20534;-82
2022/08/05 02:28:32;;;;;;;9.53;7.50;;;24.40;79.10;;;;;;5115678;28;20445;-81
2022/08/05 02:31:08;;;;;;;11.30;7.50;;;24.20;80.60;;;;;;5101246;28;20485;-80
2022/08/05 02:33:45;;;;;;;12.30;8.10;;;24.30;79.90;;;;;;5117493;28;20485;-82
2022/08/05 02:36:16;;;;;;;11.83;6.90;;;24.50;79.70;;;;;;5117989;28;20414;-81
2022/08/05 02:38:46;;;;;;;11.70;8.33;;;24.30;79.80;;;;;;5114553;28;20501;-83
2022/08/05 02:41:20;;;;;;;11.20;7.63;;;23.50;83.00;;;;;;5115796;28;20418;-82
2022/08/05 02:43:49;;;;;;;9.60;7.73;;;23.20;86.60;;;;;;5116299;28;20469;-82
2022/08/05 02:46:40;;;;;;;10.07;7.60;;;23.00;88.90;;;;;;5101056;28;20448;-82
2022/08/05 02:49:27;;;;;;;11.40;7.47;;;23.20;89.70;;;;;;5115970;28;20538;-82
2022/08/05 02:52:05;;;;;;;11.30;7.30;;;23.70;89.10;;;;;;5117076;28;20450;-83
2022/08/05 02:54:34;;;;;;;15.70;7.60;;;23.40;87.30;;;;;;5114820;28;20438;-83
2022/08/05 02:57:05;;;;;;;9.97;7.57;;;23.20;90.30;;;;;;5115152;28;20410;-84
2022/08/05 02:59:53;;;;;;;8.60;6.70;;;23.40;90.30;;;;;;5114983;28;20406;-83
2022/08/05 03:02:24;;;;;;;12.80;7.90;;;23.30;90.00;;;;;;5114196;28;20406;-82
2022/08/05 03:04:54;;;;;;;11.90;6.80;;;23.70;89.80;;;;;;5115076;28;20509;-82
2022/08/05 03:07:23;;;;;;;12.97;6.77;;;24.00;88.60;;;;;;5114998;28;20467;-82
2022/08/05 03:10:11;;;;;;;10.47;6.70;;;24.30;86.20;;;;;;5114169;28;20893;-82
2022/08/05 03:12:40;;;;;;;16.13;8.00;;;24.40;83.70;;;;;;5113339;28;20939;-81
2022/08/05 03:15:10;;;;;;;15.80;8.27;;;24.50;82.50;;;;;;5112220;28;20453;-85
2022/08/05 03:17:40;;;;;;;11.60;7.47;;;24.50;82.90;;;;;;5113482;28;20439;-82
2022/08/05 03:20:12;;;;;;;8.30;6.20;;;23.90;85.10;;;;;;5110388;28;20442;-82
2022/08/05 03:22:40;;;;;;;12.53;6.40;;;24.00;86.50;;;;;;5110504;28;20436;-83
2022/08/05 03:25:16;;;;;;;10.00;8.00;;;24.30;84.40;;;;;;5113711;28;20438;-82
2022/08/05 03:28:05;;;;;;;9.17;7.00;;;23.70;83.60;;;;;;5114222;28;20432;-82
2022/08/05 03:30:35;;;;;;;9.27;6.73;;;23.00;90.00;;;;;;5114239;28;20422;-83
2022/08/05 03:33:06;;;;;;;14.20;7.63;;;23.40;91.10;;;;;;5107681;28;20479;-81
2022/08/05 03:35:34;;;;;;;12.40;8.00;;;22.90;89.50;;;;;;5112426;28;20499;-82
2022/08/05 03:38:08;;;;;;;15.43;12.47;;;22.90;92.70;;;;;;5113970;28;20535;-84
2022/08/05 03:40:39;;;;;;;13.40;7.00;;;23.60;90.60;;;;;;5115022;28;20519;-83
2022/08/05 03:43:12;;;;;;;10.50;7.43;;;23.80;88.00;;;;;;5116515;28;20510;-83
2022/08/05 03:46:00;;;;;;;9.97;7.13;;;24.00;87.10;;;;;;5116320;28;20435;-83
2022/08/05 03:48:30;;;;;;;12.97;6.90;;;24.00;85.50;;;;;;5116591;28;20470;-84
2022/08/05 03:51:08;;;;;;;8.10;6.60;;;24.00;84.10;;;;;;5116309;28;20487;-85
2022/08/05 03:53:57;;;;;;;10.03;6.60;;;23.50;88.80;;;;;;5113512;28;20463;-83
2022/08/05 03:56:46;;;;;;;7.87;6.50;;;23.10;91.40;;;;;;5115972;28;20420;-84
2022/08/05 03:59:16;;;;;;;13.73;6.67;;;23.40;90.10;;;;;;5116311;28;20522;-82
2022/08/05 04:01:48;;;;;;;11.50;5.97;;;23.50;89.40;;;;;;5116976;28;20420;-85
2022/08/05 04:04:18;;;;;;;8.27;5.40;;;23.20;90.90;;;;;;5114792;28;20531;-83
2022/08/05 04:06:48;;;;;;;11.83;7.90;;;23.30;90.70;;;;;;5118870;28;20413;-80
2022/08/05 04:09:18;;;;;;;8.53;6.43;;;23.70;90.00;;;;;;5112574;28;20431;-80
2022/08/05 04:11:53;;;;;;;8.00;6.47;;;23.80;87.70;;;;;;5119223;28;20443;-80
2022/08/05 04:14:25;;;;;;;8.27;6.03;;;23.70;87.40;;;;;;5122855;28;20494;-81
2022/08/05 04:16:58;;;;;;;8.00;6.67;;;23.50;88.50;;;;;;5121546;28;20444;-82
2022/08/05 04:19:27;;;;;;;10.03;6.73;;;23.00;90.90;;;;;;5123512;28;20491;-81
2022/08/05 04:21:55;;;;;;;13.93;6.50;;;23.20;90.90;;;;;;5121701;28;20720;-80
2022/08/05 04:24:38;;;;;;;9.93;6.60;;;22.90;91.70;;;;;;5122130;28;20460;-81
2022/08/05 04:27:12;;;;;;;13.03;7.33;;;23.30;90.90;;;;;;5115195;28;20524;-82
2022/08/05 04:29:40;;;;;;;8.47;6.90;;;23.10;91.80;;;;;;5119049;28;20840;-83
2022/08/05 04:32:09;;;;;;;11.73;6.97;;;23.40;91.10;;;;;;5121044;28;20463;-82
2022/08/05 04:34:38;;;;;;;11.60;6.03;;;23.40;90.90;;;;;;5120947;28;21005;-82
2022/08/05 04:37:10;;;;;;;10.00;6.20;;;23.00;91.70;;;;;;5121303;28;20435;-82
2022/08/05 04:39:39;;;;;;;8.63;6.27;;;23.40;91.40;;;;;;5121118;28;20421;-83
2022/08/05 04:42:08;;;;;;;7.03;5.77;;;23.60;90.50;;;;;;5121008;28;20432;-83
2022/08/05 04:44:36;;;;;;;10.50;6.77;;;23.70;90.00;;;;;;5109882;28;20459;-81
2022/08/05 04:47:05;;;;;;;10.57;7.23;;;23.60;90.00;;;;;;5117238;28;20503;-81
2022/08/05 04:49:38;;;;;;;10.80;6.33;;;23.10;89.60;;;;;;5118854;28;20472;-81
2022/08/05 04:52:26;;;;;;;8.57;6.00;;;22.80;93.00;;;;;;5116002;28;20471;-81
2022/08/05 04:54:55;;;;;;;9.37;6.50;;;23.30;92.50;;;;;;5114959;28;20459;-81
2022/08/05 04:57:24;;;;;;;7.33;6.00;;;23.70;91.60;;;;;;5115767;28;20444;-81
2022/08/05 04:59:56;;;;;;;7.57;6.00;;;23.90;90.30;;;;;;5115929;28;20426;-81
2022/08/05 05:02:25;;;;;;;7.90;5.80;;;23.90;89.40;;;;;;5108791;28;20535;-81
2022/08/05 05:05:09;;;;;;;8.90;5.43;;;24.00;90.20;;;;;;5112610;28;20497;-82
2022/08/05 05:07:53;;;;;;;7.20;5.70;;;24.20;87.80;;;;;;5119828;28;20444;-82
2022/08/05 05:10:27;;;;;;;8.33;5.23;;;24.20;87.20;;;;;;5119923;28;20944;-82
2022/08/05 05:12:56;;;;;;;6.83;5.37;;;24.20;87.80;;;;;;5120249;28;20483;-81
2022/08/05 05:15:24;;;;;;;8.20;6.10;;;24.20;87.50;;;;;;5119628;28;20446;-81
2022/08/05 05:18:13;;;;;;;8.03;5.93;;;24.30;86.40;;;;;;5119813;28;20441;-82
2022/08/05 05:20:56;;;;;;;8.97;5.40;;;24.40;85.40;;;;;;5109072;28;20452;-82
2022/08/05 05:23:25;;;;;;;7.17;5.33;;;24.50;84.70;;;;;;5115249;28;20450;-81
2022/08/05 05:26:05;;;;;;;10.10;5.53;;;24.40;84.10;;;;;;5114668;28;20454;-82
2022/08/05 05:28:35;;;;;;;7.53;5.40;;;24.20;86.10;;;;;;5114972;28;20534;-81
2022/08/05 05:31:11;;;;;;;9.87;6.13;;;24.10;86.00;;;;;;5114440;28;20439;-81
2022/08/05 05:33:39;;;;;;;9.37;5.60;;;24.30;84.90;;;;;;5114058;28;20486;-80
2022/08/05 05:36:27;;;;;;;10.10;5.50;;;24.30;85.70;;;;;;5110045;28;20477;-79
2022/08/05 05:38:56;;;;;;;8.63;5.20;;;24.30;85.10;;;;;;5114561;28;20444;-80
2022/08/05 05:41:25;;;;;;;7.43;5.30;;;24.40;84.90;;;;;;5114506;28;20448;-80
2022/08/05 05:44:09;;;;;;;7.57;4.80;;;24.40;84.70;;;;;;5114865;28;20452;-80
2022/08/05 05:46:56;;;;;;;10.30;5.30;;;24.10;84.40;;;;;;5114116;28;20874;-81
2022/08/05 05:49:30;;;;;;;6.10;4.90;;;24.00;86.80;;;;;;5114376;28;20471;-81
2022/08/05 05:52:01;;;;;;;6.53;4.47;;;24.10;86.50;;;;;;5112331;28;20893;-81
2022/08/05 05:54:34;;;;;;;11.57;5.03;;;24.00;87.50;;;;;;5115766;28;20443;-81
2022/08/05 05:57:17;;;;;;;9.80;5.30;;;24.10;86.00;;;;;;5116559;28;20428;-82
2022/08/05 05:59:46;;;;;;;7.50;4.97;;;23.90;86.40;;;;;;5114947;28;20420;-81
2022/08/05 06:02:15;;;;;;;8.10;4.80;;;23.60;89.40;;;;;;5116559;28;20414;-80
2022/08/05 06:04:43;;;;;;;5.97;5.37;;;23.60;90.30;;;;;;5115317;28;20433;-80
2022/08/05 06:07:17;;;;;;;8.53;5.30;;;23.90;88.70;;;;;;5115423;28;20455;-80
2022/08/05 06:10:06;;;;;;;5.27;4.53;;;24.30;84.70;;;;;;5112376;28;20454;-81
2022/08/05 06:12:37;;;;;;;7.37;4.70;;;24.50;85.30;;;;;;5114304;28;20422;-81
2022/08/05 06:15:10;;;;;;;8.80;5.30;;;23.60;87.70;;;;;;5113136;28;20451;-80
2022/08/05 06:17:51;;;;;;;11.67;5.50;;;23.00;90.20;;;;;;5114078;28;20438;-81
2022/08/05 06:20:21;;;;;;;15.70;5.60;;;23.40;91.50;;;;;;5136367;28;20420;-82
2022/08/05 06:22:51;;;;;;;11.60;5.70;;;23.90;90.00;;;;;;5138491;28;20492;-82
2022/08/05 06:25:19;;;;;;;11.03;5.07;;;23.70;86.30;;;;;;5137607;28;20452;-82
2022/08/05 06:28:07;;;;;;;7.97;4.63;;;23.30;90.50;;;;;;5138520;28;20491;-82
2022/08/05 06:30:48;;;;;;;7.10;5.40;;;23.80;90.30;;;;;;5137089;28;20424;-82
2022/08/05 06:33:16;;;;;;;8.80;5.90;;;23.50;89.50;;;;;;5136349;28;20458;-81
2022/08/05 06:35:46;;;;;;;8.30;5.37;;;23.50;89.50;;;;;;5131137;28;20473;-80
2022/08/05 06:38:35;;;;;;;9.23;5.03;;;23.00;90.50;;;;;;5118235;28;20443;-82
2022/08/05 06:41:04;;;;;;;5.37;4.60;;;23.00;92.70;;;;;;5119163;27;20481;-80
2022/08/05 06:43:34;;;;;;;6.73;4.73;;;23.30;92.10;;;;;;5117489;28;20509;-81
2022/08/05 06:46:22;;;;;;;10.07;5.90;;;23.40;91.70;;;;;;5117641;28;20817;-82
2022/08/05 06:48:57;;;;;;;11.47;5.47;;;23.70;90.30;;;;;;5118519;28;20438;-81
2022/08/05 06:51:26;;;;;;;14.93;5.03;;;23.70;91.20;;;;;;5118523;28;20505;-83
2022/08/05 06:53:58;;;;;;;5.70;4.67;;;23.80;90.70;;;;;;5118719;28;20476;-80
2022/08/05 06:56:26;;;;;;;7.00;4.67;;;23.90;90.00;;;;;;5118026;28;20444;-83
2022/08/05 06:58:54;;;;;;;5.80;4.80;;;23.80;90.10;;;;;;5118593;28;20519;-83
2022/08/05 07:01:22;;;;;;;6.90;5.07;;;24.00;89.90;;;;;;5117364;28;20448;-83
2022/08/05 07:03:59;;;;;;;8.67;6.20;;;24.30;88.50;;;;;;5097650;28;20452;-84
2022/08/05 07:06:27;;;;;;;7.80;5.43;;;24.10;87.70;;;;;;5097564;28;20441;-83
2022/08/05 07:08:55;;;;;;;8.27;5.60;;;23.20;90.80;;;;;;5097902;28;20430;-84
2022/08/05 07:11:29;;;;;;;8.50;4.27;;;23.50;91.40;;;;;;5095825;28;20479;-82
2022/08/05 07:16:59;;;;;;;5.50;2.60;;;24.60;91.20;;;;;;5101059;28;20426;-79
2022/08/05 07:19:48;;;;;;;3.23;2.90;;;25.20;87.50;;;;;;5113533;28;20463;-79
2022/08/05 07:22:35;;;;;;;4.47;2.67;;;25.60;83.90;;;;;;5114366;28;20788;-80
2022/08/05 07:25:04;;;;;;;3.93;2.50;;;25.90;81.70;;;;;;5113366;28;20422;-80
2022/08/05 07:27:54;;;;;;;2.73;2.40;;;26.10;78.90;;;;;;5114658;28;20406;-80
2022/08/05 07:30:29;;;;;;;6.93;2.20;;;26.30;77.10;;;;;;5111134;28;20448;-79
2022/08/05 07:33:00;;;;;;;3.00;2.53;;;26.50;75.60;;;;;;5107621;28;20457;-79
2022/08/05 07:35:27;;;;;;;2.87;2.40;;;26.60;74.20;;;;;;5112092;28;20446;-79
2022/08/05 07:38:15;;;;;;;3.33;2.30;;;26.70;73.30;;;;;;5111491;28;20406;-80
2022/08/05 07:41:03;;;;;;;4.40;2.40;;;26.80;72.20;;;;;;5110592;28;20428;-79
2022/08/05 07:43:52;;;;;;;2.90;2.10;;;26.90;71.40;;;;;;5111734;28;20399;-79
2022/08/05 07:46:23;;;;;;;3.10;2.20;;;26.90;70.50;;;;;;5109156;28;20435;-80
2022/08/05 07:48:53;;;;;;;4.77;2.40;;;27.00;70.00;;;;;;5109346;28;20465;-80
2022/08/05 07:51:31;;;;;;;2.60;2.30;;;27.10;69.40;;;;;;5111605;28;20945;-79
2022/08/05 07:54:05;;;;;;;2.50;1.80;;;27.20;68.90;;;;;;5109415;28;20471;-79
2022/08/05 07:56:35;;;;;;;2.33;2.13;;;27.30;68.30;;;;;;5110726;28;20975;-80
2022/08/05 07:59:24;;;;;;;4.13;2.57;;;27.30;67.80;;;;;;5108960;28;20395;-80
2022/08/05 08:02:07;;;;;;;3.40;2.40;;;27.40;67.20;;;;;;5109675;28;20924;-80
2022/08/05 08:04:43;;;;;;;2.47;2.07;;;27.40;66.80;;;;;;5108915;28;20540;-79
2022/08/05 08:07:12;;;;;;;4.10;2.27;;;27.50;66.30;;;;;;5109716;28;20433;-79
2022/08/05 08:09:40;;;;;;;7.40;1.80;;;27.50;66.00;;;;;;5108896;28;20471;-80
2022/08/05 08:12:08;;;;;;;2.60;2.40;;;27.60;65.70;;;;;;5111608;28;20517;-79
2022/08/05 08:14:57;;;;;;;2.37;2.13;;;27.60;65.40;;;;;;5108144;28;20463;-79
2022/08/05 08:17:30;;;;;;;3.13;2.20;;;27.60;65.20;;;;;;5111647;28;20527;-80
2022/08/05 08:19:58;;;;;;;4.73;1.77;;;27.70;64.80;;;;;;5111502;28;20419;-79
2022/08/05 08:22:51;;;;;;;1.90;1.77;;;27.70;64.60;;;;;;5109668;28;20458;-79
2022/08/05 08:25:19;;;;;;;2.37;1.80;;;27.70;64.20;;;;;;5109240;28;20820;-79
2022/08/05 08:28:07;;;;;;;2.47;2.27;;;27.80;64.10;;;;;;5111781;28;20391;-79
2022/08/05 08:30:46;;;;;;;3.20;2.03;;;27.80;63.70;;;;;;5110194;28;20837;-79
2022/08/05 08:33:16;;;;;;;1.90;1.80;;;27.80;63.50;;;;;;5112032;28;20448;-79
2022/08/05 08:35:46;;;;;;;1.90;1.80;;;27.90;63.10;;;;;;5110966;28;20467;-80
2022/08/05 08:38:20;;;;;;;2.30;2.10;;;27.90;62.90;;;;;;5112877;28;20440;-81
2022/08/05 08:41:05;;;;;;;1.90;1.70;;;28.00;62.60;;;;;;5089967;28;20464;-77
2022/08/05 08:43:33;;;;;;;1.90;1.80;;;28.10;62.40;;;;;;5107474;28;20403;-77
2022/08/05 08:46:23;;;;;;;6.33;2.07;;;28.10;62.10;;;;;;5109488;28;20428;-77
2022/08/05 08:48:51;;;;;;;5.70;2.13;;;28.10;61.70;;;;;;5110137;28;20429;-77
2022/08/05 08:51:39;;;;;;;4.37;2.60;;;28.20;61.60;;;;;;5110711;28;20432;-78
2022/08/05 08:54:27;;;;;;;4.33;2.50;;;28.20;61.60;;;;;;5109769;28;20468;-79
2022/08/05 08:56:55;;;;;;;6.63;2.77;;;28.20;61.20;;;;;;5109993;28;20444;-78
2022/08/05 08:59:23;;;;;;;5.70;2.43;;;28.20;61.40;;;;;;5105697;28;20472;-79
2022/08/05 09:02:04;;;;;;;7.03;2.70;;;28.20;61.20;;;;;;5112790;28;20477;-78
2022/08/05 09:04:36;;;;;;;4.63;2.27;;;28.20;61.20;;;;;;5114498;28;20451;-79
2022/08/05 09:07:24;;;;;;;12.20;2.70;;;28.30;61.20;;;;;;5114818;28;20421;-79
2022/08/05 09:09:56;;;;;;;10.17;2.70;;;28.40;61.40;;;;;;5114842;28;20486;-79
2022/08/05 09:12:25;;;;;;;6.73;2.43;;;28.60;61.60;;;;;;5115222;28;20443;-78
2022/08/05 09:14:54;;;;;;;9.70;2.57;;;28.70;61.40;;;;;;5114709;27;20502;-78
2022/08/05 09:17:32;;;;;;;5.20;2.20;;;28.90;61.20;;;;;;5113950;28;20458;-79
2022/08/05 09:20:10;;;;;;;7.87;2.30;;;29.00;60.70;;;;;;5108861;28;20869;-79
2022/08/05 09:23:03;;;;;;;4.50;2.23;;;29.00;60.30;;;;;;5115208;28;20444;-79
2022/08/05 09:25:36;;;;;;;12.47;2.60;;;29.00;60.10;;;;;;5114111;28;20435;-79
2022/08/05 09:28:26;;;;;;;6.23;2.43;;;29.00;59.90;;;;;;5113077;28;20427;-79
2022/08/05 09:31:03;;;;;;;6.43;2.10;;;28.90;59.70;;;;;;5112564;28;20446;-79
2022/08/05 09:33:53;;;;;;;9.77;3.10;;;29.00;59.70;;;;;;5110597;28;20459;-77
2022/08/05 09:36:23;;;;;;;4.60;2.70;;;28.90;60.30;;;;;;5110656;28;20464;-78
2022/08/05 09:39:01;;;;;;;4.27;2.90;;;28.80;59.50;;;;;;5113097;28;20439;-78
2022/08/05 09:41:29;;;;;;;9.77;2.87;;;28.80;59.40;;;;;;5113737;28;20448;-78
2022/08/05 09:44:05;;;;;;;11.93;3.03;;;28.80;59.60;;;;;;5115965;28;20463;-79
2022/08/05 09:46:33;;;;;;;9.83;3.63;;;28.80;59.60;;;;;;5115178;28;20440;-78
2022/08/05 09:49:05;;;;;;;7.33;2.90;;;28.80;59.60;;;;;;5112010;28;20965;-80
2022/08/05 09:51:47;;;;;;;10.00;3.13;;;28.80;59.60;;;;;;5108749;28;20445;-78
2022/08/05 09:54:16;;;;;;;10.27;3.50;;;28.80;59.50;;;;;;5112679;28;20457;-78
2022/08/05 09:56:56;;;;;;;13.17;3.33;;;28.90;59.30;;;;;;5109366;28;20549;-77
2022/08/05 09:59:29;;;;;;;10.23;3.17;;;29.00;59.10;;;;;;5111183;28;20467;-78
2022/08/05 10:02:03;;;;;;;11.07;3.20;;;29.10;58.90;;;;;;5112821;28;20428;-78
2022/08/05 10:04:36;;;;;;;11.37;3.07;;;29.10;58.50;;;;;;5113974;28;20542;-78
2022/08/05 10:07:06;;;;;;;14.03;3.37;;;29.10;58.30;;;;;;5106246;28;20452;-78
2022/08/05 10:09:55;;;;;;;9.93;3.37;;;29.10;58.20;;;;;;5105096;28;20503;-78
2022/08/05 10:12:43;;;;;;;10.97;3.53;;;29.10;58.10;;;;;;5111999;28;20463;-77
2022/08/05 10:15:22;;;;;;;7.80;3.30;;;29.10;58.00;;;;;;5111687;28;20894;-78
2022/08/05 10:18:10;;;;;;;5.33;3.07;;;29.20;58.50;;;;;;5112942;28;20439;-78
2022/08/05 10:20:42;;;;;;;9.63;3.20;;;29.20;57.80;;;;;;5114668;28;20901;-78
2022/08/05 10:23:15;;;;;;;10.23;2.93;;;29.30;57.60;;;;;;5112019;28;20450;-79
2022/08/05 10:26:04;;;;;;;6.93;2.93;;;29.40;57.40;;;;;;5111448;28;20412;-79
2022/08/05 10:28:34;;;;;;;6.77;2.73;;;29.50;57.20;;;;;;5111055;28;20471;-78
2022/08/05 10:31:03;;;;;;;4.57;2.60;;;29.60;56.90;;;;;;5113646;28;20459;-79
2022/08/05 10:33:51;;;;;;;8.03;2.83;;;29.70;56.70;;;;;;5113441;28;20426;-78
2022/08/05 10:36:22;;;;;;;4.40;2.43;;;29.80;56.50;;;;;;5111495;28;20446;-79
2022/08/05 10:38:56;;;;;;;11.27;2.60;;;29.80;56.10;;;;;;5112524;28;20463;-79
2022/08/05 10:41:28;;;;;;;3.70;2.30;;;29.80;55.90;;;;;;5111409;28;20455;-78
2022/08/05 10:44:17;;;;;;;4.33;2.47;;;29.90;55.80;;;;;;5108638;28;20467;-78
2022/08/05 10:46:46;;;;;;;5.97;2.50;;;29.90;55.70;;;;;;5115512;28;20443;-78
2022/08/05 10:49:20;;;;;;;4.00;2.57;;;29.90;55.60;;;;;;5112981;28;20439;-77
2022/08/05 10:52:02;;;;;;;3.27;2.17;;;29.90;55.20;;;;;;5111720;28;20516;-77
2022/08/05 10:54:47;;;;;;;4.73;2.40;;;29.90;55.20;;;;;;5114704;28;20463;-78
2022/08/05 10:57:27;;;;;;;7.70;2.33;;;29.90;55.20;;;;;;5112886;28;20430;-78
2022/08/05 11:00:08;;;;;;;4.43;2.43;;;30.00;55.10;;;;;;5105813;28;20424;-79
2022/08/05 11:03:14;;;;;;;3.03;2.10;;;30.00;54.90;;;;;;5115302;28;20420;-79
2022/08/05 11:06:03;;;;;;;3.20;1.80;;;30.20;54.80;;;;;;5115278;28;20432;-79
2022/08/05 11:08:32;;;;;;;2.90;2.00;;;30.30;54.90;;;;;;5116979;28;20432;-79
2022/08/05 11:11:33;;;;;;;3.43;1.70;;;30.50;54.10;;;;;;5109660;28;20460;-77
2022/08/05 11:14:26;;;;;;;2.53;2.07;;;30.40;53.50;;;;;;5109937;28;20497;-76
2022/08/05 11:17:31;;;;;;;6.90;2.00;;;30.50;53.60;;;;;;5106258;28;20463;-76
2022/08/05 11:20:40;;;;;;;7.27;1.93;;;30.50;53.40;;;;;;5104042;28;20439;-76
2022/08/05 11:23:35;;;;;;;2.73;1.70;;;30.50;53.00;;;;;;5110913;28;20493;-76
2022/08/05 11:26:23;;;;;;;2.90;1.80;;;30.50;53.20;;;;;;5110191;28;20429;-75
2022/08/05 11:28:57;;;;;;;2.70;1.90;;;30.40;53.00;;;;;;5110207;28;20530;-76
2022/08/05 11:31:38;;;;;;;1.70;1.50;;;30.40;53.10;;;;;;5110544;28;20454;-75
2022/08/05 11:34:36;;;;;;;4.57;2.10;;;30.50;52.90;;;;;;5100352;28;20455;-76
2022/08/05 11:37:04;;;;;;;2.40;1.70;;;30.60;52.50;;;;;;5099694;28;20470;-76
2022/08/05 11:39:53;;;;;;;5.23;1.97;;;30.50;52.30;;;;;;5108373;28;20484;-75
2022/08/05 11:42:30;;;;;;;3.10;2.00;;;30.40;52.70;;;;;;5105816;28;20439;-77
2022/08/05 11:45:02;;;;;;;4.20;1.50;;;30.40;52.40;;;;;;5104833;28;20493;-76
2022/08/05 11:47:32;;;;;;;3.10;1.97;;;30.50;52.90;;;;;;5102798;28;20444;-76
2022/08/05 11:50:16;;;;;;;3.90;1.80;;;30.60;52.40;;;;;;5106124;28;20444;-76
2022/08/05 11:52:44;;;;;;;5.60;1.60;;;30.50;52.20;;;;;;5104844;28;20444;-76
2022/08/05 11:55:18;;;;;;;3.10;1.83;;;30.50;52.40;;;;;;5111215;27;20456;-76
2022/08/05 11:57:47;;;;;;;3.80;1.90;;;30.70;52.40;;;;;;5111280;28;20468;-76
2022/08/05 12:00:35;;;;;;;2.60;1.27;;;31.70;52.20;;;;;;5111524;28;20428;-76
2022/08/05 12:03:19;;;;;;;1.47;1.30;;;33.80;48.40;;;;;;5112124;28;20512;-75
2022/08/05 12:06:00;;;;;;;3.43;1.97;;;33.30;46.30;;;;;;5110585;28;20442;-76
2022/08/05 12:08:28;;;;;;;3.10;1.30;;;33.50;45.70;;;;;;5111946;28;20459;-75
2022/08/05 12:11:01;;;;;;;2.10;1.30;;;33.10;46.90;;;;;;5111452;28;20452;-74
2022/08/05 12:13:33;;;;;;;2.87;1.47;;;33.40;46.80;;;;;;5111908;28;20432;-75
2022/08/05 12:16:17;;;;;;;1.57;1.47;;;33.50;46.20;;;;;;5110219;28;20464;-75
2022/08/05 12:18:46;;;;;;;3.37;1.33;;;33.70;46.00;;;;;;5111876;28;20444;-75
2022/08/05 12:21:21;;;;;;;2.57;1.37;;;33.70;45.20;;;;;;5111433;28;20446;-75
2022/08/05 12:23:59;;;;;;;7.50;1.10;;;34.40;46.40;;;;;;5111249;28;20478;-75
2022/08/05 12:26:34;;;;;;;6.20;1.30;;;36.20;42.40;;;;;;5110794;28;20451;-75
2022/08/05 12:29:03;;;;;;;1.57;1.17;;;37.50;39.30;;;;;;5111190;28;20504;-75
2022/08/05 12:31:32;;;;;;;6.70;1.40;;;37.20;38.10;;;;;;5111131;28;20958;-75
2022/08/05 12:34:16;;;;;;;1.00;1.00;;;37.10;39.80;;;;;;5115221;28;20455;-73
2022/08/05 12:36:48;;;;;;;1.23;1.00;;;38.10;38.00;;;;;;5114904;28;20489;-74
2022/08/05 12:39:16;;;;;;;2.57;0.90;;;37.80;38.20;;;;;;5115683;28;20432;-74
2022/08/05 12:41:46;;;;;;;2.63;1.43;;;38.30;36.20;;;;;;5114338;28;20447;-73
2022/08/05 12:44:15;;;;;;;1.93;1.20;;;36.80;37.90;;;;;;5114252;28;20448;-73
2022/08/05 12:47:00;;;;;;;1.43;1.20;;;35.50;39.70;;;;;;5114276;28;20523;-75
2022/08/05 12:49:39;;;;;;;3.23;1.20;;;34.60;41.70;;;;;;5106072;28;20452;-75
2022/08/05 12:52:26;;;;;;;1.93;1.40;;;34.20;42.50;;;;;;5114400;28;20431;-75
2022/08/05 12:55:02;;;;;;;1.67;1.30;;;33.70;43.40;;;;;;5108331;28;20546;-74
2022/08/05 12:57:37;;;;;;;1.47;1.10;;;35.20;42.90;;;;;;5092860;28;20555;-75
2022/08/05 13:00:25;;;;;;;1.33;1.23;;;37.00;39.50;;;;;;5093043;28;20429;-75
2022/08/05 13:03:13;;;;;;;1.10;1.00;;;37.90;37.40;;;;;;5099496;28;20440;-74
2022/08/05 13:05:41;;;;;;;4.83;1.00;;;38.60;35.00;;;;;;5104400;28;20817;-76
2022/08/05 13:08:09;;;;;;;2.07;1.10;;;37.10;36.90;;;;;;5112952;28;20439;-76
2022/08/05 13:10:42;;;;;;;0.90;0.90;;;36.00;38.60;;;;;;5112909;28;20458;-75
2022/08/05 13:13:20;;;;;;;1.47;1.00;;;36.40;38.00;;;;;;5093183;28;20514;-76
2022/08/05 13:16:13;;;;;;;1.00;1.00;;;36.90;38.80;;;;;;5092487;28;20459;-74
2022/08/05 13:18:51;;;;;;;3.77;1.20;;;38.00;36.70;;;;;;5100391;28;20491;-75
2022/08/05 13:21:22;;;;;;;1.33;0.90;;;37.90;36.50;;;;;;5111459;28;20501;-76
2022/08/05 13:23:55;;;;;;;2.43;0.73;;;37.70;36.50;;;;;;5112600;28;20463;-75
2022/08/05 13:26:25;;;;;;;0.93;0.80;;;37.40;36.80;;;;;;5107820;28;20440;-75
2022/08/05 13:28:58;;;;;;;6.10;1.20;;;37.00;37.20;;;;;;5111977;28;20435;-74
2022/08/05 13:31:27;;;;;;;2.20;1.00;;;36.60;37.90;;;;;;5113402;28;20440;-74